sensor_id;sensor_type;location;lat;lon;timestamp;temperature;humidity
13673;DHT22;6909;52.202;9.876;2023-01-29T00:01:44;-0.20;99.90
13673;DHT22;6909;52.202;9.876;2023-01-29T00:04:10;-0.20;99.90
13673;DHT22;6909;52.202;9.876;2023-01-29T00:06:38;-0.10;99.90
13673;DHT22;6909;52.202;9.876;2023-01-29T00:09:05;-0.20;99.90
13673;DHT22;6909;52.202;9.876;2023-01-29T00:11:32;-0.20;99.90
13673;DHT22;6909;52.202;9.876;2023-01-29T00:14:00;-0.20;99.90
13673;DHT22;6909;52.202;9.876;2023-01-29T00:16:26;-0.20;99.90
13673;DHT22;6909;52.202;9.876;2023-01-29T00:18:53;-0.20;99.90
13673;DHT22;6909;52.202;9.876;2023-01-29T00:21:21;-0.20;99.90
13673;DHT22;6909;52.202;9.876;2023-01-29T00:23:49;-0.20;99.90
13673;DHT22;6909;52.202;9.876;2023-01-29T00:26:16;-0.20;99.90
13673;DHT22;6909;52.202;9.876;2023-01-29T00:28:43;-0.20;99.90
13673;DHT22;6909;52.202;9.876;2023-01-29T00:31:11;-0.10;99.90
13673;DHT22;6909;52.202;9.876;2023-01-29T00:33:39;-0.10;99.90
13673;DHT22;6909;52.202;9.876;2023-01-29T00:36:07;-0.10;99.90
13673;DHT22;6909;52.202;9.876;2023-01-29T00:38:35;-0.10;99.90
13673;DHT22;6909;52.202;9.876;2023-01-29T00:41:07;-0.10;99.90
13673;DHT22;6909;52.202;9.876;2023-01-29T00:43:52;-0.10;99.90
13673;DHT22;6909;52.202;9.876;2023-01-29T00:46:36;-0.10;99.90
13673;DHT22;6909;52.202;9.876;2023-01-29T00:49:04;-0.10;99.90
13673;DHT22;6909;52.202;9.876;2023-01-29T00:51:31;0.00;99.90
13673;DHT22;6909;52.202;9.876;2023-01-29T00:53:58;0.00;99.90
13673;DHT22;6909;52.202;9.876;2023-01-29T00:56:27;-0.10;99.90
13673;DHT22;6909;52.202;9.876;2023-01-29T00:58:53;-0.10;99.90
13673;DHT22;6909;52.202;9.876;2023-01-29T01:01:21;-0.10;99.90
13673;DHT22;6909;52.202;9.876;2023-01-29T01:04:01;-0.10;99.90
13673;DHT22;6909;52.202;9.876;2023-01-29T01:06:28;-0.20;99.90
13673;DHT22;6909;52.202;9.876;2023-01-29T01:08:55;-0.20;99.90
13673;DHT22;6909;52.202;9.876;2023-01-29T01:11:40;-0.20;99.90
13673;DHT22;6909;52.202;9.876;2023-01-29T01:14:07;-0.30;99.90
13673;DHT22;6909;52.202;9.876;2023-01-29T01:16:33;-0.40;99.90
13673;DHT22;6909;52.202;9.876;2023-01-29T01:19:01;-0.30;99.90
13673;DHT22;6909;52.202;9.876;2023-01-29T01:21:28;-0.40;99.90
13673;DHT22;6909;52.202;9.876;2023-01-29T01:23:55;-0.30;99.90
13673;DHT22;6909;52.202;9.876;2023-01-29T01:26:21;-0.30;99.90
13673;DHT22;6909;52.202;9.876;2023-01-29T01:28:49;-0.40;99.90
13673;DHT22;6909;52.202;9.876;2023-01-29T01:31:16;-0.40;99.90
13673;DHT22;6909;52.202;9.876;2023-01-29T01:33:45;-0.40;99.90
13673;DHT22;6909;52.202;9.876;2023-01-29T01:36:11;-0.50;99.90
13673;DHT22;6909;52.202;9.876;2023-01-29T01:38:38;-0.50;99.90
13673;DHT22;6909;52.202;9.876;2023-01-29T01:41:10;-0.40;99.90
13673;DHT22;6909;52.202;9.876;2023-01-29T01:43:51;-0.40;99.90
13673;DHT22;6909;52.202;9.876;2023-01-29T01:46:18;-0.50;99.90
13673;DHT22;6909;52.202;9.876;2023-01-29T01:48:47;-0.50;99.90
13673;DHT22;6909;52.202;9.876;2023-01-29T01:51:16;-0.60;99.90
13673;DHT22;6909;52.202;9.876;2023-01-29T01:53:48;-0.60;99.90
13673;DHT22;6909;52.202;9.876;2023-01-29T01:56:20;-0.60;99.90
13673;DHT22;6909;52.202;9.876;2023-01-29T01:58:51;-0.70;99.90
13673;DHT22;6909;52.202;9.876;2023-01-29T02:01:20;-0.70;99.90
13673;DHT22;6909;52.202;9.876;2023-01-29T02:03:56;-0.70;99.90
13673;DHT22;6909;52.202;9.876;2023-01-29T02:06:41;-0.70;99.90
13673;DHT22;6909;52.202;9.876;2023-01-29T02:09:30;-0.60;99.90
13673;DHT22;6909;52.202;9.876;2023-01-29T02:12:00;-0.60;99.90
13673;DHT22;6909;52.202;9.876;2023-01-29T02:14:28;-0.70;99.90
13673;DHT22;6909;52.202;9.876;2023-01-29T02:16:56;-0.80;99.90
13673;DHT22;6909;52.202;9.876;2023-01-29T02:19:30;-0.80;99.90
13673;DHT22;6909;52.202;9.876;2023-01-29T02:22:19;-0.80;99.90
13673;DHT22;6909;52.202;9.876;2023-01-29T02:25:11;-0.80;99.90
13673;DHT22;6909;52.202;9.876;2023-01-29T02:28:11;-0.90;99.90
13673;DHT22;6909;52.202;9.876;2023-01-29T02:30:42;-1.00;99.90
13673;DHT22;6909;52.202;9.876;2023-01-29T02:33:15;-0.90;99.90
13673;DHT22;6909;52.202;9.876;2023-01-29T02:35:51;-1.00;99.90
13673;DHT22;6909;52.202;9.876;2023-01-29T02:38:27;-1.00;99.90
13673;DHT22;6909;52.202;9.876;2023-01-29T02:41:00;-1.00;99.90
13673;DHT22;6909;52.202;9.876;2023-01-29T02:43:32;-0.90;99.90
13673;DHT22;6909;52.202;9.876;2023-01-29T02:46:11;-0.80;99.90
13673;DHT22;6909;52.202;9.876;2023-01-29T02:48:44;-0.80;99.90
13673;DHT22;6909;52.202;9.876;2023-01-29T02:51:18;-0.70;99.90
13673;DHT22;6909;52.202;9.876;2023-01-29T02:53:51;-0.60;99.90
13673;DHT22;6909;52.202;9.876;2023-01-29T02:56:23;-0.50;99.90
13673;DHT22;6909;52.202;9.876;2023-01-29T02:58:58;-0.50;99.90
13673;DHT22;6909;52.202;9.876;2023-01-29T03:01:30;-0.50;99.90
13673;DHT22;6909;52.202;9.876;2023-01-29T03:04:02;-0.40;99.90
13673;DHT22;6909;52.202;9.876;2023-01-29T03:06:32;-0.30;99.90
13673;DHT22;6909;52.202;9.876;2023-01-29T03:09:04;-0.30;99.90
13673;DHT22;6909;52.202;9.876;2023-01-29T03:11:35;-0.30;99.90
13673;DHT22;6909;52.202;9.876;2023-01-29T03:14:10;-0.30;99.90
13673;DHT22;6909;52.202;9.876;2023-01-29T03:16:40;-0.30;99.90
13673;DHT22;6909;52.202;9.876;2023-01-29T03:19:12;-0.30;99.90
13673;DHT22;6909;52.202;9.876;2023-01-29T03:21:43;-0.20;99.90
13673;DHT22;6909;52.202;9.876;2023-01-29T03:24:24;-0.30;99.90
13673;DHT22;6909;52.202;9.876;2023-01-29T03:27:11;-0.20;99.90
13673;DHT22;6909;52.202;9.876;2023-01-29T03:29:58;-0.20;99.90
13673;DHT22;6909;52.202;9.876;2023-01-29T03:32:44;-0.10;99.90
13673;DHT22;6909;52.202;9.876;2023-01-29T03:35:15;-0.20;99.90
13673;DHT22;6909;52.202;9.876;2023-01-29T03:37:46;-0.20;99.90
13673;DHT22;6909;52.202;9.876;2023-01-29T03:40:14;-0.10;99.90
13673;DHT22;6909;52.202;9.876;2023-01-29T03:42:50;-0.10;99.90
13673;DHT22;6909;52.202;9.876;2023-01-29T03:45:25;-0.10;99.90
13673;DHT22;6909;52.202;9.876;2023-01-29T03:47:58;-0.10;99.90
13673;DHT22;6909;52.202;9.876;2023-01-29T03:50:34;0.00;99.90
13673;DHT22;6909;52.202;9.876;2023-01-29T03:53:07;0.00;99.90
13673;DHT22;6909;52.202;9.876;2023-01-29T03:55:39;0.00;99.90
13673;DHT22;6909;52.202;9.876;2023-01-29T03:58:19;0.00;99.90
13673;DHT22;6909;52.202;9.876;2023-01-29T04:00:52;0.10;99.90
13673;DHT22;6909;52.202;9.876;2023-01-29T04:03:25;0.10;99.90
13673;DHT22;6909;52.202;9.876;2023-01-29T04:05:58;0.10;99.90
13673;DHT22;6909;52.202;9.876;2023-01-29T04:08:31;0.00;99.90
13673;DHT22;6909;52.202;9.876;2023-01-29T04:11:02;0.10;99.90
13673;DHT22;6909;52.202;9.876;2023-01-29T04:13:32;0.10;99.90
13673;DHT22;6909;52.202;9.876;2023-01-29T04:16:05;0.10;99.90
13673;DHT22;6909;52.202;9.876;2023-01-29T04:18:33;0.10;99.90
13673;DHT22;6909;52.202;9.876;2023-01-29T04:21:02;0.10;99.90
13673;DHT22;6909;52.202;9.876;2023-01-29T04:23:31;0.10;99.90
13673;DHT22;6909;52.202;9.876;2023-01-29T04:29:13;0.20;99.90
13673;DHT22;6909;52.202;9.876;2023-01-29T04:31:49;0.20;99.90
13673;DHT22;6909;52.202;9.876;2023-01-29T04:34:22;0.20;99.90
13673;DHT22;6909;52.202;9.876;2023-01-29T04:36:58;0.20;99.90
13673;DHT22;6909;52.202;9.876;2023-01-29T04:39:32;0.20;99.90
13673;DHT22;6909;52.202;9.876;2023-01-29T04:42:05;0.20;99.90
13673;DHT22;6909;52.202;9.876;2023-01-29T04:44:38;0.20;99.90
13673;DHT22;6909;52.202;9.876;2023-01-29T04:47:17;0.20;99.90
13673;DHT22;6909;52.202;9.876;2023-01-29T04:49:46;0.20;99.90
13673;DHT22;6909;52.202;9.876;2023-01-29T04:52:18;0.20;99.90
13673;DHT22;6909;52.202;9.876;2023-01-29T04:54:53;0.20;99.90
13673;DHT22;6909;52.202;9.876;2023-01-29T04:57:30;0.10;99.90
13673;DHT22;6909;52.202;9.876;2023-01-29T05:00:04;0.20;99.90
13673;DHT22;6909;52.202;9.876;2023-01-29T05:02:39;0.20;99.90
13673;DHT22;6909;52.202;9.876;2023-01-29T05:05:07;0.10;99.90
13673;DHT22;6909;52.202;9.876;2023-01-29T05:07:37;0.20;99.90
13673;DHT22;6909;52.202;9.876;2023-01-29T05:10:06;0.20;99.90
13673;DHT22;6909;52.202;9.876;2023-01-29T05:12:35;0.20;99.90
13673;DHT22;6909;52.202;9.876;2023-01-29T05:15:05;0.20;99.90
13673;DHT22;6909;52.202;9.876;2023-01-29T05:17:35;0.20;99.90
13673;DHT22;6909;52.202;9.876;2023-01-29T05:20:02;0.30;99.90
13673;DHT22;6909;52.202;9.876;2023-01-29T05:22:29;0.30;99.90
13673;DHT22;6909;52.202;9.876;2023-01-29T05:24:56;0.30;99.90
13673;DHT22;6909;52.202;9.876;2023-01-29T05:27:31;0.30;99.90
13673;DHT22;6909;52.202;9.876;2023-01-29T05:30:17;0.30;99.90
13673;DHT22;6909;52.202;9.876;2023-01-29T05:32:45;0.30;99.90
13673;DHT22;6909;52.202;9.876;2023-01-29T05:35:12;0.30;99.90
13673;DHT22;6909;52.202;9.876;2023-01-29T05:37:39;0.30;99.90
13673;DHT22;6909;52.202;9.876;2023-01-29T05:40:07;0.30;99.90
13673;DHT22;6909;52.202;9.876;2023-01-29T05:42:34;0.30;99.90
13673;DHT22;6909;52.202;9.876;2023-01-29T05:45:00;0.30;99.90
13673;DHT22;6909;52.202;9.876;2023-01-29T05:47:27;0.30;99.90
13673;DHT22;6909;52.202;9.876;2023-01-29T05:49:55;0.30;99.90
13673;DHT22;6909;52.202;9.876;2023-01-29T05:52:21;0.30;99.90
13673;DHT22;6909;52.202;9.876;2023-01-29T05:54:48;0.20;99.90
13673;DHT22;6909;52.202;9.876;2023-01-29T05:57:15;0.30;99.90
13673;DHT22;6909;52.202;9.876;2023-01-29T05:59:41;0.30;99.90
13673;DHT22;6909;52.202;9.876;2023-01-29T06:02:08;0.30;99.90
13673;DHT22;6909;52.202;9.876;2023-01-29T06:04:35;0.30;99.90
13673;DHT22;6909;52.202;9.876;2023-01-29T06:07:03;0.20;99.90
13673;DHT22;6909;52.202;9.876;2023-01-29T06:09:29;0.20;99.90
13673;DHT22;6909;52.202;9.876;2023-01-29T06:11:56;0.20;99.90
13673;DHT22;6909;52.202;9.876;2023-01-29T06:14:23;0.30;99.90
13673;DHT22;6909;52.202;9.876;2023-01-29T06:16:49;0.20;99.90
13673;DHT22;6909;52.202;9.876;2023-01-29T06:19:16;0.20;99.90
13673;DHT22;6909;52.202;9.876;2023-01-29T06:21:45;0.20;99.90
13673;DHT22;6909;52.202;9.876;2023-01-29T06:24:13;0.20;99.90
13673;DHT22;6909;52.202;9.876;2023-01-29T06:26:39;0.30;99.90
13673;DHT22;6909;52.202;9.876;2023-01-29T06:29:06;0.20;99.90
13673;DHT22;6909;52.202;9.876;2023-01-29T06:31:33;0.30;99.90
13673;DHT22;6909;52.202;9.876;2023-01-29T06:33:59;0.30;99.90
13673;DHT22;6909;52.202;9.876;2023-01-29T06:36:26;0.30;99.90
13673;DHT22;6909;52.202;9.876;2023-01-29T06:38:53;0.30;99.90
13673;DHT22;6909;52.202;9.876;2023-01-29T06:41:21;0.30;99.90
13673;DHT22;6909;52.202;9.876;2023-01-29T06:43:50;0.30;99.90
13673;DHT22;6909;52.202;9.876;2023-01-29T06:46:16;0.30;99.90
13673;DHT22;6909;52.202;9.876;2023-01-29T06:48:43;0.30;99.90
13673;DHT22;6909;52.202;9.876;2023-01-29T06:51:10;0.30;99.90
13673;DHT22;6909;52.202;9.876;2023-01-29T06:53:38;0.30;99.90
13673;DHT22;6909;52.202;9.876;2023-01-29T06:56:06;0.30;99.90
13673;DHT22;6909;52.202;9.876;2023-01-29T06:58:35;0.30;99.90
13673;DHT22;6909;52.202;9.876;2023-01-29T07:01:03;0.40;99.90
13673;DHT22;6909;52.202;9.876;2023-01-29T07:03:29;0.30;99.90
13673;DHT22;6909;52.202;9.876;2023-01-29T07:05:56;0.30;99.90
13673;DHT22;6909;52.202;9.876;2023-01-29T07:08:23;0.30;99.90
13673;DHT22;6909;52.202;9.876;2023-01-29T07:10:49;0.30;99.90
13673;DHT22;6909;52.202;9.876;2023-01-29T07:13:16;0.30;99.90
13673;DHT22;6909;52.202;9.876;2023-01-29T07:15:44;0.30;99.90
13673;DHT22;6909;52.202;9.876;2023-01-29T07:18:11;0.30;99.90
13673;DHT22;6909;52.202;9.876;2023-01-29T07:20:38;0.30;99.90
13673;DHT22;6909;52.202;9.876;2023-01-29T07:23:07;0.40;99.90
13673;DHT22;6909;52.202;9.876;2023-01-29T07:25:34;0.40;99.90
13673;DHT22;6909;52.202;9.876;2023-01-29T07:28:01;0.30;99.90
13673;DHT22;6909;52.202;9.876;2023-01-29T07:30:27;0.40;99.90
13673;DHT22;6909;52.202;9.876;2023-01-29T07:33:00;0.30;99.90
13673;DHT22;6909;52.202;9.876;2023-01-29T07:35:27;0.40;99.90
13673;DHT22;6909;52.202;9.876;2023-01-29T07:37:53;0.40;99.90
13673;DHT22;6909;52.202;9.876;2023-01-29T07:40:20;0.40;99.90
13673;DHT22;6909;52.202;9.876;2023-01-29T07:42:46;0.40;99.90
13673;DHT22;6909;52.202;9.876;2023-01-29T07:45:13;0.40;99.90
13673;DHT22;6909;52.202;9.876;2023-01-29T07:47:40;0.40;99.90
13673;DHT22;6909;52.202;9.876;2023-01-29T07:50:09;0.50;99.90
13673;DHT22;6909;52.202;9.876;2023-01-29T07:52:36;0.50;99.90
13673;DHT22;6909;52.202;9.876;2023-01-29T07:55:02;0.40;99.90
13673;DHT22;6909;52.202;9.876;2023-01-29T07:57:32;0.40;99.90
13673;DHT22;6909;52.202;9.876;2023-01-29T07:59:59;0.40;99.90
13673;DHT22;6909;52.202;9.876;2023-01-29T08:02:25;0.50;99.90
13673;DHT22;6909;52.202;9.876;2023-01-29T08:04:52;0.50;99.90
13673;DHT22;6909;52.202;9.876;2023-01-29T08:07:20;0.50;99.90
13673;DHT22;6909;52.202;9.876;2023-01-29T08:09:47;0.50;99.90
13673;DHT22;6909;52.202;9.876;2023-01-29T08:12:13;0.50;99.90
13673;DHT22;6909;52.202;9.876;2023-01-29T08:14:40;0.60;99.90
13673;DHT22;6909;52.202;9.876;2023-01-29T08:17:07;0.60;99.90
13673;DHT22;6909;52.202;9.876;2023-01-29T08:19:33;0.70;99.90
13673;DHT22;6909;52.202;9.876;2023-01-29T08:22:00;0.70;99.90
13673;DHT22;6909;52.202;9.876;2023-01-29T08:24:28;0.70;99.90
13673;DHT22;6909;52.202;9.876;2023-01-29T08:26:54;0.80;99.90
13673;DHT22;6909;52.202;9.876;2023-01-29T08:29:21;0.80;99.90
13673;DHT22;6909;52.202;9.876;2023-01-29T08:31:48;0.80;99.90
13673;DHT22;6909;52.202;9.876;2023-01-29T08:34:14;0.70;99.90
13673;DHT22;6909;52.202;9.876;2023-01-29T08:36:41;0.70;99.90
13673;DHT22;6909;52.202;9.876;2023-01-29T08:39:08;0.70;99.90
13673;DHT22;6909;52.202;9.876;2023-01-29T08:41:36;0.80;99.90
13673;DHT22;6909;52.202;9.876;2023-01-29T08:44:03;0.80;99.90
13673;DHT22;6909;52.202;9.876;2023-01-29T08:46:30;0.90;99.90
13673;DHT22;6909;52.202;9.876;2023-01-29T08:48:56;0.90;99.90
13673;DHT22;6909;52.202;9.876;2023-01-29T08:51:24;0.90;99.90
13673;DHT22;6909;52.202;9.876;2023-01-29T08:53:51;0.90;99.90
13673;DHT22;6909;52.202;9.876;2023-01-29T08:56:18;1.00;99.90
13673;DHT22;6909;52.202;9.876;2023-01-29T08:58:46;1.00;99.90
13673;DHT22;6909;52.202;9.876;2023-01-29T09:01:13;1.00;99.90
13673;DHT22;6909;52.202;9.876;2023-01-29T09:03:40;1.00;99.90
13673;DHT22;6909;52.202;9.876;2023-01-29T09:06:09;1.00;99.90
13673;DHT22;6909;52.202;9.876;2023-01-29T09:08:37;1.00;99.90
13673;DHT22;6909;52.202;9.876;2023-01-29T09:11:04;0.90;99.90
13673;DHT22;6909;52.202;9.876;2023-01-29T09:13:31;0.90;99.90
13673;DHT22;6909;52.202;9.876;2023-01-29T09:16:00;0.90;99.90
13673;DHT22;6909;52.202;9.876;2023-01-29T09:18:26;1.00;99.90
13673;DHT22;6909;52.202;9.876;2023-01-29T09:20:53;1.00;99.90
13673;DHT22;6909;52.202;9.876;2023-01-29T09:23:20;1.10;99.90
13673;DHT22;6909;52.202;9.876;2023-01-29T09:25:47;1.10;99.90
13673;DHT22;6909;52.202;9.876;2023-01-29T09:28:13;1.20;99.90
13673;DHT22;6909;52.202;9.876;2023-01-29T09:30:42;1.20;99.90
13673;DHT22;6909;52.202;9.876;2023-01-29T09:33:10;1.20;99.90
13673;DHT22;6909;52.202;9.876;2023-01-29T09:35:39;1.20;99.90
13673;DHT22;6909;52.202;9.876;2023-01-29T09:38:06;1.20;99.90
13673;DHT22;6909;52.202;9.876;2023-01-29T09:40:37;1.20;99.90
13673;DHT22;6909;52.202;9.876;2023-01-29T09:43:13;1.20;99.90
13673;DHT22;6909;52.202;9.876;2023-01-29T09:45:48;1.20;99.90
13673;DHT22;6909;52.202;9.876;2023-01-29T09:48:19;1.30;99.90
13673;DHT22;6909;52.202;9.876;2023-01-29T09:50:49;1.30;99.90
13673;DHT22;6909;52.202;9.876;2023-01-29T09:53:19;1.40;99.90
13673;DHT22;6909;52.202;9.876;2023-01-29T09:55:50;1.40;99.90
13673;DHT22;6909;52.202;9.876;2023-01-29T09:58:23;1.40;99.90
13673;DHT22;6909;52.202;9.876;2023-01-29T10:00:59;1.40;99.90
13673;DHT22;6909;52.202;9.876;2023-01-29T10:03:41;1.50;99.90
13673;DHT22;6909;52.202;9.876;2023-01-29T10:06:20;1.60;99.90
13673;DHT22;6909;52.202;9.876;2023-01-29T10:09:02;1.50;99.90
13673;DHT22;6909;52.202;9.876;2023-01-29T10:11:37;1.60;99.90
13673;DHT22;6909;52.202;9.876;2023-01-29T10:14:15;1.70;99.90
13673;DHT22;6909;52.202;9.876;2023-01-29T10:16:56;1.70;99.90
13673;DHT22;6909;52.202;9.876;2023-01-29T10:19:48;1.80;99.90
13673;DHT22;6909;52.202;9.876;2023-01-29T10:22:43;1.90;99.90
13673;DHT22;6909;52.202;9.876;2023-01-29T10:25:13;1.90;99.90
13673;DHT22;6909;52.202;9.876;2023-01-29T10:27:45;1.90;99.90
13673;DHT22;6909;52.202;9.876;2023-01-29T10:30:24;1.90;99.90
13673;DHT22;6909;52.202;9.876;2023-01-29T10:32:52;1.90;99.90
13673;DHT22;6909;52.202;9.876;2023-01-29T10:35:26;2.00;99.90
13673;DHT22;6909;52.202;9.876;2023-01-29T10:37:55;2.10;99.90
13673;DHT22;6909;52.202;9.876;2023-01-29T10:40:31;2.10;99.90
13673;DHT22;6909;52.202;9.876;2023-01-29T10:43:06;2.00;99.90
13673;DHT22;6909;52.202;9.876;2023-01-29T10:45:42;2.10;99.90
13673;DHT22;6909;52.202;9.876;2023-01-29T10:48:43;2.10;99.90
13673;DHT22;6909;52.202;9.876;2023-01-29T10:51:25;2.00;99.90
13673;DHT22;6909;52.202;9.876;2023-01-29T10:54:03;2.00;99.90
13673;DHT22;6909;52.202;9.876;2023-01-29T10:56:48;2.00;99.90
13673;DHT22;6909;52.202;9.876;2023-01-29T10:59:30;2.00;99.90
13673;DHT22;6909;52.202;9.876;2023-01-29T11:02:07;2.10;99.90
13673;DHT22;6909;52.202;9.876;2023-01-29T11:04:36;2.00;99.90
13673;DHT22;6909;52.202;9.876;2023-01-29T11:07:04;2.00;99.90
13673;DHT22;6909;52.202;9.876;2023-01-29T11:09:34;2.00;99.90
13673;DHT22;6909;52.202;9.876;2023-01-29T11:12:04;2.00;99.90
13673;DHT22;6909;52.202;9.876;2023-01-29T11:14:43;2.00;99.90
13673;DHT22;6909;52.202;9.876;2023-01-29T11:17:14;2.00;99.90
13673;DHT22;6909;52.202;9.876;2023-01-29T11:19:44;2.00;99.90
13673;DHT22;6909;52.202;9.876;2023-01-29T11:22:14;2.10;99.90
13673;DHT22;6909;52.202;9.876;2023-01-29T11:24:41;2.10;99.90
13673;DHT22;6909;52.202;9.876;2023-01-29T11:27:20;2.00;99.90
13673;DHT22;6909;52.202;9.876;2023-01-29T11:29:51;2.00;99.90
13673;DHT22;6909;52.202;9.876;2023-01-29T11:32:24;2.10;99.90
13673;DHT22;6909;52.202;9.876;2023-01-29T11:34:59;2.20;99.90
13673;DHT22;6909;52.202;9.876;2023-01-29T11:37:34;2.20;99.90
13673;DHT22;6909;52.202;9.876;2023-01-29T11:40:07;2.30;99.90
13673;DHT22;6909;52.202;9.876;2023-01-29T11:42:53;2.60;99.90
13673;DHT22;6909;52.202;9.876;2023-01-29T11:45:24;2.50;99.90
13673;DHT22;6909;52.202;9.876;2023-01-29T11:47:53;2.50;99.90
13673;DHT22;6909;52.202;9.876;2023-01-29T11:50:23;2.50;99.90
13673;DHT22;6909;52.202;9.876;2023-01-29T11:52:52;2.40;99.90
13673;DHT22;6909;52.202;9.876;2023-01-29T11:55:21;2.40;99.90
13673;DHT22;6909;52.202;9.876;2023-01-29T11:57:50;2.40;99.90
13673;DHT22;6909;52.202;9.876;2023-01-29T12:00:21;2.40;99.90
13673;DHT22;6909;52.202;9.876;2023-01-29T12:02:52;2.40;99.90
13673;DHT22;6909;52.202;9.876;2023-01-29T12:05:22;2.40;99.90
13673;DHT22;6909;52.202;9.876;2023-01-29T12:07:52;2.40;99.90
13673;DHT22;6909;52.202;9.876;2023-01-29T12:10:31;2.40;99.90
13673;DHT22;6909;52.202;9.876;2023-01-29T12:13:06;2.50;99.90
13673;DHT22;6909;52.202;9.876;2023-01-29T12:15:43;2.50;99.90
13673;DHT22;6909;52.202;9.876;2023-01-29T12:18:15;2.60;99.90
13673;DHT22;6909;52.202;9.876;2023-01-29T12:20:46;2.70;99.90
13673;DHT22;6909;52.202;9.876;2023-01-29T12:23:24;2.70;99.90
13673;DHT22;6909;52.202;9.876;2023-01-29T12:25:59;2.70;99.90
13673;DHT22;6909;52.202;9.876;2023-01-29T12:28:36;2.80;99.90
13673;DHT22;6909;52.202;9.876;2023-01-29T12:31:18;3.00;99.90
13673;DHT22;6909;52.202;9.876;2023-01-29T12:33:51;3.10;99.90
13673;DHT22;6909;52.202;9.876;2023-01-29T12:36:24;3.10;99.90
13673;DHT22;6909;52.202;9.876;2023-01-29T12:38:53;3.10;99.90
13673;DHT22;6909;52.202;9.876;2023-01-29T12:41:32;3.00;99.90
13673;DHT22;6909;52.202;9.876;2023-01-29T12:44:06;2.90;99.90
13673;DHT22;6909;52.202;9.876;2023-01-29T12:46:38;2.90;99.90
13673;DHT22;6909;52.202;9.876;2023-01-29T12:49:11;2.70;99.90
13673;DHT22;6909;52.202;9.876;2023-01-29T12:51:46;2.60;99.90
13673;DHT22;6909;52.202;9.876;2023-01-29T12:54:19;2.60;99.90
13673;DHT22;6909;52.202;9.876;2023-01-29T12:56:52;2.50;99.90
13673;DHT22;6909;52.202;9.876;2023-01-29T12:59:27;2.50;99.90
13673;DHT22;6909;52.202;9.876;2023-01-29T13:02:00;2.40;99.90
13673;DHT22;6909;52.202;9.876;2023-01-29T13:04:35;2.40;99.90
13673;DHT22;6909;52.202;9.876;2023-01-29T13:07:10;2.40;99.90
13673;DHT22;6909;52.202;9.876;2023-01-29T13:09:42;2.40;99.90
13673;DHT22;6909;52.202;9.876;2023-01-29T13:12:12;2.30;99.90
13673;DHT22;6909;52.202;9.876;2023-01-29T13:14:44;2.30;99.90
13673;DHT22;6909;52.202;9.876;2023-01-29T13:17:15;2.40;99.90
13673;DHT22;6909;52.202;9.876;2023-01-29T13:19:45;2.30;99.90
13673;DHT22;6909;52.202;9.876;2023-01-29T13:22:18;2.40;99.90
13673;DHT22;6909;52.202;9.876;2023-01-29T13:24:48;2.30;99.90
13673;DHT22;6909;52.202;9.876;2023-01-29T13:27:21;2.40;99.90
13673;DHT22;6909;52.202;9.876;2023-01-29T13:29:49;2.40;99.90
13673;DHT22;6909;52.202;9.876;2023-01-29T13:32:20;2.30;99.90
13673;DHT22;6909;52.202;9.876;2023-01-29T13:34:49;2.30;99.90
13673;DHT22;6909;52.202;9.876;2023-01-29T13:37:32;2.40;99.90
13673;DHT22;6909;52.202;9.876;2023-01-29T13:40:02;2.40;99.90
13673;DHT22;6909;52.202;9.876;2023-01-29T13:42:37;2.30;99.90
13673;DHT22;6909;52.202;9.876;2023-01-29T13:45:07;2.30;99.90
13673;DHT22;6909;52.202;9.876;2023-01-29T13:47:36;2.30;99.90
13673;DHT22;6909;52.202;9.876;2023-01-29T13:50:05;2.30;99.90
13673;DHT22;6909;52.202;9.876;2023-01-29T13:52:36;2.40;99.90
13673;DHT22;6909;52.202;9.876;2023-01-29T13:55:18;2.40;99.90
13673;DHT22;6909;52.202;9.876;2023-01-29T13:57:51;2.50;99.90
13673;DHT22;6909;52.202;9.876;2023-01-29T14:06:44;2.40;99.90
13673;DHT22;6909;52.202;9.876;2023-01-29T14:12:55;2.50;99.90
13673;DHT22;6909;52.202;9.876;2023-01-29T14:15:45;2.50;99.90
13673;DHT22;6909;52.202;9.876;2023-01-29T14:18:32;2.50;99.90
13673;DHT22;6909;52.202;9.876;2023-01-29T14:21:02;2.50;99.90
13673;DHT22;6909;52.202;9.876;2023-01-29T14:23:35;2.40;99.90
13673;DHT22;6909;52.202;9.876;2023-01-29T14:26:17;2.40;99.90
13673;DHT22;6909;52.202;9.876;2023-01-29T14:28:52;2.30;99.90
13673;DHT22;6909;52.202;9.876;2023-01-29T14:31:29;2.30;99.90
13673;DHT22;6909;52.202;9.876;2023-01-29T14:33:59;2.30;99.90
13673;DHT22;6909;52.202;9.876;2023-01-29T14:36:27;2.30;99.90
13673;DHT22;6909;52.202;9.876;2023-01-29T14:38:54;2.20;99.90
13673;DHT22;6909;52.202;9.876;2023-01-29T14:41:25;2.30;99.90
13673;DHT22;6909;52.202;9.876;2023-01-29T14:46:55;2.30;99.90
13673;DHT22;6909;52.202;9.876;2023-01-29T14:49:48;2.20;99.90
13673;DHT22;6909;52.202;9.876;2023-01-29T14:52:15;2.20;99.90
13673;DHT22;6909;52.202;9.876;2023-01-29T14:54:45;2.20;99.90
13673;DHT22;6909;52.202;9.876;2023-01-29T14:57:15;2.10;99.90
13673;DHT22;6909;52.202;9.876;2023-01-29T14:59:48;2.10;99.90
13673;DHT22;6909;52.202;9.876;2023-01-29T15:02:21;2.10;99.90
13673;DHT22;6909;52.202;9.876;2023-01-29T15:04:53;2.10;99.90
13673;DHT22;6909;52.202;9.876;2023-01-29T15:07:28;2.10;99.90
13673;DHT22;6909;52.202;9.876;2023-01-29T15:09:59;2.10;99.90
13673;DHT22;6909;52.202;9.876;2023-01-29T15:12:34;2.10;99.90
13673;DHT22;6909;52.202;9.876;2023-01-29T15:15:09;2.10;99.90
13673;DHT22;6909;52.202;9.876;2023-01-29T15:17:53;2.00;99.90
13673;DHT22;6909;52.202;9.876;2023-01-29T15:20:27;2.00;99.90
13673;DHT22;6909;52.202;9.876;2023-01-29T15:22:54;2.00;99.90
13673;DHT22;6909;52.202;9.876;2023-01-29T15:25:21;1.90;99.90
13673;DHT22;6909;52.202;9.876;2023-01-29T15:27:48;1.90;99.90
13673;DHT22;6909;52.202;9.876;2023-01-29T15:30:17;1.90;99.90
13673;DHT22;6909;52.202;9.876;2023-01-29T15:32:47;1.90;99.90
13673;DHT22;6909;52.202;9.876;2023-01-29T15:35:25;1.90;99.90
13673;DHT22;6909;52.202;9.876;2023-01-29T15:38:01;1.90;99.90
13673;DHT22;6909;52.202;9.876;2023-01-29T15:40:28;1.80;99.90
13673;DHT22;6909;52.202;9.876;2023-01-29T15:42:55;1.80;99.90
13673;DHT22;6909;52.202;9.876;2023-01-29T15:45:24;1.80;99.90
13673;DHT22;6909;52.202;9.876;2023-01-29T15:47:54;1.80;99.90
13673;DHT22;6909;52.202;9.876;2023-01-29T15:50:23;1.80;99.90
13673;DHT22;6909;52.202;9.876;2023-01-29T15:52:51;1.80;99.90
13673;DHT22;6909;52.202;9.876;2023-01-29T15:55:20;1.80;99.90
13673;DHT22;6909;52.202;9.876;2023-01-29T15:57:49;1.80;99.90
13673;DHT22;6909;52.202;9.876;2023-01-29T16:00:21;1.70;99.90
13673;DHT22;6909;52.202;9.876;2023-01-29T16:02:49;1.70;99.90
13673;DHT22;6909;52.202;9.876;2023-01-29T16:05:19;1.70;99.90
13673;DHT22;6909;52.202;9.876;2023-01-29T16:07:48;1.70;99.90
13673;DHT22;6909;52.202;9.876;2023-01-29T16:10:17;1.70;99.90
13673;DHT22;6909;52.202;9.876;2023-01-29T16:12:45;1.70;99.90
13673;DHT22;6909;52.202;9.876;2023-01-29T16:15:21;1.60;99.90
13673;DHT22;6909;52.202;9.876;2023-01-29T16:17:49;1.60;99.90
13673;DHT22;6909;52.202;9.876;2023-01-29T16:20:30;1.60;99.90
13673;DHT22;6909;52.202;9.876;2023-01-29T16:22:58;1.60;99.90
13673;DHT22;6909;52.202;9.876;2023-01-29T16:25:27;1.60;99.90
13673;DHT22;6909;52.202;9.876;2023-01-29T16:27:54;1.60;99.90
13673;DHT22;6909;52.202;9.876;2023-01-29T16:30:24;1.60;99.90
13673;DHT22;6909;52.202;9.876;2023-01-29T16:32:52;1.50;99.90
13673;DHT22;6909;52.202;9.876;2023-01-29T16:35:20;1.50;99.90
13673;DHT22;6909;52.202;9.876;2023-01-29T16:37:47;1.50;99.90
13673;DHT22;6909;52.202;9.876;2023-01-29T16:40:25;1.50;99.90